createdAt,value
2022-09-21T00:00:51.272Z,96.36
2022-09-21T00:03:19.573Z,96.36
2022-09-21T00:05:47.430Z,96.32
2022-09-21T00:08:15.342Z,96.51
2022-09-21T00:10:43.163Z,96.66
2022-09-21T00:13:13.796Z,96.40
2022-09-21T00:15:41.861Z,96.50
2022-09-21T00:18:11.567Z,96.68
2022-09-21T00:20:43.379Z,96.57
2022-09-21T00:23:11.418Z,96.71
2022-09-21T00:25:39.266Z,96.70
2022-09-21T00:28:07.073Z,96.51
2022-09-21T00:30:34.975Z,96.40
2022-09-21T00:33:02.794Z,96.66
2022-09-21T00:35:32.156Z,96.82
2022-09-21T00:38:02.118Z,96.46
2022-09-21T00:40:30.851Z,96.72
2022-09-21T00:43:13.034Z,96.61
2022-09-21T00:45:41.444Z,96.72
2022-09-21T00:48:09.490Z,96.61
2022-09-21T00:50:39.937Z,96.82
2022-09-21T00:53:08.868Z,96.44
2022-09-21T00:55:41.826Z,96.53
2022-09-21T00:58:15.516Z,96.73
2022-09-21T01:00:43.799Z,96.65
2022-09-21T01:03:14.046Z,96.48
2022-09-21T01:05:43.246Z,96.59
2022-09-21T01:08:13.992Z,97.18
2022-09-21T01:10:52.983Z,96.49
2022-09-21T01:13:31.592Z,96.78
2022-09-21T01:16:06.344Z,96.62
2022-09-21T01:18:43.161Z,96.81
2022-09-21T01:21:21.613Z,97.05
2022-09-21T01:24:16.118Z,96.73
2022-09-21T01:27:11.634Z,96.93
2022-09-21T01:29:45.760Z,96.69
2022-09-21T01:32:20.630Z,97.16
2022-09-21T01:34:54.308Z,96.54
2022-09-21T01:37:26.431Z,96.91
2022-09-21T01:40:00.031Z,96.63
2022-09-21T01:42:30.967Z,96.61
2022-09-21T01:45:04.579Z,96.80
2022-09-21T01:47:35.976Z,96.88
2022-09-21T01:50:06.807Z,96.52
2022-09-21T01:52:39.947Z,96.78
2022-09-21T01:55:14.732Z,96.55
2022-09-21T01:57:48.808Z,96.88
2022-09-21T02:00:18.547Z,96.90
2022-09-21T02:02:52.276Z,96.93
2022-09-21T02:05:23.760Z,97.20
2022-09-21T02:07:53.246Z,96.97
2022-09-21T02:10:28.483Z,97.14
2022-09-21T02:13:00.889Z,97.03
2022-09-21T02:15:40.990Z,97.24
2022-09-21T02:18:19.029Z,97.44
2022-09-21T02:20:54.345Z,96.97
2022-09-21T02:23:32.748Z,97.01
2022-09-21T02:26:07.886Z,97.43
2022-09-21T02:28:43.445Z,97.06
2022-09-21T02:31:21.732Z,96.93
2022-09-21T02:33:59.706Z,97.15
2022-09-21T02:36:35.530Z,97.20
2022-09-21T02:39:10.585Z,97.29
2022-09-21T02:41:45.560Z,97.30
2022-09-21T02:44:20.571Z,97.03
2022-09-21T02:46:54.770Z,97.22
2022-09-21T02:49:28.625Z,97.00
2022-09-21T02:52:00.235Z,97.27
2022-09-21T02:54:31.441Z,97.30
2022-09-21T02:57:01.382Z,97.39
2022-09-21T02:59:29.419Z,97.33
2022-09-21T03:01:58.541Z,97.29
2022-09-21T03:04:27.794Z,97.14
2022-09-21T03:06:57.019Z,97.63
2022-09-21T03:09:24.963Z,97.25
2022-09-21T03:11:53.129Z,97.29
2022-09-21T03:14:20.957Z,97.32
2022-09-21T03:16:48.788Z,97.23
2022-09-21T03:19:17.976Z,97.32
2022-09-21T03:21:45.985Z,97.56
2022-09-21T03:24:33.860Z,97.25
2022-09-21T03:27:01.892Z,97.32
2022-09-21T03:29:29.795Z,97.29
2022-09-21T03:31:57.656Z,97.20
2022-09-21T03:34:27.021Z,97.79
2022-09-21T03:36:54.988Z,97.41
2022-09-21T03:39:22.972Z,97.20
2022-09-21T03:41:50.826Z,97.23
2022-09-21T03:44:19.972Z,97.59
2022-09-21T03:46:48.050Z,97.35
2022-09-21T03:49:15.882Z,97.29
2022-09-21T03:51:45.526Z,97.62
2022-09-21T03:54:13.282Z,97.25
2022-09-21T03:56:41.091Z,97.20
2022-09-21T03:59:13.762Z,97.28
2022-09-21T04:01:43.343Z,97.36
2022-09-21T04:04:11.268Z,97.40
2022-09-21T04:06:39.098Z,97.18
2022-09-21T04:09:08.584Z,97.33
2022-09-21T04:11:36.483Z,97.36
2022-09-21T04:14:05.477Z,97.47
2022-09-21T04:16:33.301Z,97.48
2022-09-21T04:19:01.127Z,97.35
2022-09-21T04:21:29.858Z,97.56
2022-09-21T04:23:57.721Z,97.46
2022-09-21T04:26:28.002Z,97.46
2022-09-21T04:28:56.298Z,97.35
2022-09-21T04:31:25.138Z,97.42
2022-09-21T04:33:54.351Z,97.58
2022-09-21T04:36:23.370Z,97.37
2022-09-21T04:38:51.817Z,97.50
2022-09-21T04:41:20.119Z,97.62
2022-09-21T04:43:49.666Z,97.52
2022-09-21T04:46:20.059Z,97.58
2022-09-21T04:48:49.698Z,97.75
2022-09-21T04:51:18.419Z,97.66
2022-09-21T04:53:46.828Z,97.43
2022-09-21T04:56:15.790Z,97.33
2022-09-21T04:58:43.906Z,97.48
2022-09-21T05:01:13.128Z,97.52
2022-09-21T05:03:41.032Z,97.48
2022-09-21T05:06:10.802Z,97.44
2022-09-21T05:08:55.871Z,97.55
2022-09-21T05:11:24.420Z,97.58
2022-09-21T05:13:52.782Z,97.40
2022-09-21T05:16:22.006Z,97.62
2022-09-21T05:18:49.949Z,97.63
2022-09-21T05:21:21.456Z,97.59
2022-09-21T05:23:49.496Z,97.83
2022-09-21T05:26:17.317Z,97.64
2022-09-21T05:28:45.796Z,97.93
2022-09-21T05:31:31.740Z,97.59
2022-09-21T05:34:06.354Z,97.85
2022-09-21T05:36:45.032Z,97.77
2022-09-21T05:39:13.317Z,97.84
2022-09-21T05:41:41.777Z,97.91
2022-09-21T05:44:13.560Z,97.77
2022-09-21T05:46:55.338Z,97.76
2022-09-21T05:49:33.625Z,97.91
2022-09-21T05:52:11.649Z,97.89
2022-09-21T05:54:52.585Z,97.98
2022-09-21T05:57:31.043Z,97.95
2022-09-21T06:00:08.988Z,98.34
2022-09-21T06:02:59.417Z,98.18
2022-09-21T06:05:27.589Z,98.20
2022-09-21T06:07:55.278Z,98.08
2022-09-21T06:10:24.153Z,98.31
2022-09-21T06:12:52.010Z,98.16
2022-09-21T06:15:19.980Z,98.03
2022-09-21T06:17:49.325Z,98.55
2022-09-21T06:20:17.413Z,98.09
2022-09-21T06:22:45.112Z,98.24
2022-09-21T06:25:12.981Z,98.67
2022-09-21T06:27:40.835Z,98.55
2022-09-21T06:30:09.041Z,98.91
2022-09-21T06:32:36.839Z,98.55
2022-09-21T06:35:07.179Z,99.05
2022-09-21T06:37:35.029Z,99.04
2022-09-21T06:40:03.350Z,98.91
2022-09-21T06:42:31.461Z,98.32
2022-09-21T06:44:59.245Z,98.51
2022-09-21T06:47:27.106Z,98.28
2022-09-21T06:49:56.459Z,98.49
2022-09-21T06:52:25.625Z,97.94
2022-09-21T06:54:53.570Z,97.32
2022-09-21T06:57:21.405Z,94.95
2022-09-21T06:59:49.415Z,84.56
2022-09-21T07:02:17.232Z,75.07
2022-09-21T07:04:45.072Z,69.13
2022-09-21T07:07:13.107Z,59.67
2022-09-21T07:12:35.174Z,56.02
2022-09-21T07:15:03.895Z,49.26
2022-09-21T07:17:36.379Z,46.36
2022-09-21T07:20:05.959Z,45.45
2022-09-21T07:22:33.833Z,42.09
2022-09-21T07:25:03.138Z,42.45
2022-09-21T07:27:32.654Z,41.01
2022-09-21T07:30:00.482Z,41.21
2022-09-21T07:32:28.430Z,40.18
2022-09-21T07:34:56.977Z,40.07
2022-09-21T07:37:25.438Z,38.96
2022-09-21T07:39:54.623Z,38.85
2022-09-21T07:42:25.485Z,38.98
2022-09-21T07:45:03.154Z,36.97
2022-09-21T07:47:32.228Z,35.52
2022-09-21T07:50:00.046Z,36.49
2022-09-21T07:52:28.374Z,36.80
2022-09-21T07:54:56.255Z,38.37
2022-09-21T07:57:43.275Z,32.82
2022-09-21T08:00:12.554Z,31.13
2022-09-21T08:02:45.170Z,34.57
2022-09-21T08:05:16.046Z,32.81
2022-09-21T08:07:44.031Z,31.21
2022-09-21T08:10:12.484Z,31.48
2022-09-21T08:12:43.766Z,31.76
2022-09-21T08:15:30.684Z,30.32
2022-09-21T08:18:02.230Z,28.97
2022-09-21T08:20:30.162Z,29.68
2022-09-21T08:22:57.990Z,29.50
2022-09-21T08:25:27.199Z,31.11
2022-09-21T08:28:00.523Z,30.06
2022-09-21T08:30:31.003Z,28.65
2022-09-21T08:32:58.947Z,30.17
2022-09-21T08:35:26.775Z,26.44
2022-09-21T08:37:54.913Z,25.01
2022-09-21T08:40:23.256Z,27.27
2022-09-21T08:43:02.765Z,28.40
2022-09-21T08:45:35.481Z,29.82
2022-09-21T08:48:10.852Z,26.12
2022-09-21T08:50:45.312Z,26.26
2022-09-21T08:53:16.420Z,23.53
2022-09-21T08:55:44.546Z,24.97
2022-09-21T08:58:23.464Z,25.93
2022-09-21T09:01:06.923Z,24.58
2022-09-21T09:03:54.564Z,23.96
2022-09-21T09:06:30.712Z,22.58
2022-09-21T09:09:10.721Z,24.74
2022-09-21T09:11:55.891Z,25.39
2022-09-21T09:14:40.777Z,26.78
2022-09-21T09:17:26.181Z,25.70
2022-09-21T09:19:59.347Z,25.10
2022-09-21T09:22:31.305Z,25.52
2022-09-21T09:25:03.978Z,26.05
2022-09-21T09:27:37.449Z,23.44
2022-09-21T09:30:17.320Z,23.33
2022-09-21T09:32:53.477Z,24.20
2022-09-21T09:35:27.562Z,24.16
2022-09-21T09:38:00.893Z,24.19
2022-09-21T09:40:48.049Z,24.93
2022-09-21T09:43:26.824Z,26.85
2022-09-21T09:46:12.311Z,28.86
2022-09-21T09:48:56.053Z,34.07
2022-09-21T09:51:26.752Z,29.22
2022-09-21T09:54:00.070Z,24.71
2022-09-21T09:56:28.454Z,24.80
2022-09-21T09:59:00.105Z,25.75
2022-09-21T10:01:42.649Z,31.09
2022-09-21T10:04:12.531Z,35.61
2022-09-21T10:06:46.132Z,39.20
2022-09-21T10:09:25.042Z,41.82
2022-09-21T10:11:53.934Z,44.32
2022-09-21T10:14:24.885Z,43.59
2022-09-21T10:16:56.687Z,41.04
2022-09-21T10:19:27.336Z,38.48
2022-09-21T10:21:58.751Z,32.37
2022-09-21T10:24:29.172Z,25.98
2022-09-21T10:27:06.205Z,25.34
2022-09-21T10:29:42.056Z,24.68
2022-09-21T10:32:26.298Z,23.01
2022-09-21T10:35:13.482Z,19.12
2022-09-21T10:37:43.227Z,19.19
2022-09-21T10:40:36.616Z,19.86
2022-09-21T10:43:06.154Z,20.37
2022-09-21T10:45:37.060Z,26.32
2022-09-21T10:48:14.346Z,33.38
2022-09-21T10:50:44.357Z,37.54
2022-09-21T10:53:14.682Z,39.04
2022-09-21T10:55:58.440Z,40.41
2022-09-21T10:58:35.257Z,42.77
2022-09-21T11:01:13.006Z,42.96
2022-09-21T11:03:52.131Z,42.03
2022-09-21T11:06:25.171Z,40.59
2022-09-21T11:08:58.681Z,41.03
2022-09-21T11:11:39.494Z,42.72
2022-09-21T11:14:16.938Z,42.34
2022-09-21T11:16:52.141Z,42.92
2022-09-21T11:19:31.631Z,42.10
2022-09-21T11:22:07.697Z,33.18
2022-09-21T11:24:44.655Z,22.88
2022-09-21T11:27:18.133Z,20.24
2022-09-21T11:29:56.353Z,18.93
2022-09-21T11:32:36.031Z,17.67
2022-09-21T11:35:25.666Z,20.51
2022-09-21T11:38:05.963Z,19.70
2022-09-21T11:40:55.751Z,19.44
2022-09-21T11:43:41.425Z,22.15
2022-09-21T11:46:21.084Z,22.46
2022-09-21T11:49:21.918Z,19.29
2022-09-21T11:52:09.060Z,17.86
2022-09-21T11:54:55.336Z,18.30
2022-09-21T11:57:28.509Z,23.59
2022-09-21T12:00:09.811Z,28.11
2022-09-21T12:03:21.926Z,28.34
2022-09-21T12:06:04.404Z,24.35
2022-09-21T12:08:47.668Z,21.03
2022-09-21T12:11:29.625Z,24.25
2022-09-21T12:14:03.733Z,28.25
2022-09-21T12:16:39.726Z,24.31
2022-09-21T12:19:15.258Z,26.74
2022-09-21T12:21:47.926Z,31.76
2022-09-21T12:24:21.863Z,34.08
2022-09-21T12:26:55.537Z,35.45
2022-09-21T12:29:30.446Z,37.79
2022-09-21T12:32:05.362Z,35.87
2022-09-21T12:34:41.887Z,37.74
2022-09-21T12:37:15.743Z,36.36
2022-09-21T12:39:50.747Z,36.56
2022-09-21T12:42:31.278Z,29.92
2022-09-21T12:45:04.400Z,22.93
2022-09-21T12:47:48.417Z,19.42
2022-09-21T12:50:21.485Z,16.72
2022-09-21T12:52:51.330Z,14.24
2022-09-21T12:55:33.117Z,16.91
2022-09-21T12:58:17.043Z,17.81
2022-09-21T13:00:54.993Z,15.30
2022-09-21T13:03:33.300Z,15.95
2022-09-21T13:06:24.380Z,14.72
2022-09-21T13:08:52.984Z,14.54
2022-09-21T13:11:24.091Z,12.69
2022-09-21T13:13:59.288Z,14.27
2022-09-21T13:16:30.276Z,16.52
2022-09-21T13:19:01.411Z,14.00
2022-09-21T13:21:31.892Z,15.09
2022-09-21T13:24:01.990Z,14.35
2022-09-21T13:26:37.969Z,13.74
2022-09-21T13:29:29.282Z,14.52
2022-09-21T13:32:00.153Z,14.25
2022-09-21T13:34:31.710Z,16.26
2022-09-21T13:37:29.917Z,15.75
2022-09-21T13:40:40.919Z,18.45
2022-09-21T13:43:23.869Z,18.56
2022-09-21T13:45:55.753Z,17.51
2022-09-21T13:48:29.416Z,16.40
2022-09-21T13:51:01.407Z,18.63
2022-09-21T13:53:38.302Z,17.96
2022-09-21T13:56:17.304Z,17.86
2022-09-21T13:58:50.288Z,25.43
2022-09-21T14:01:45.054Z,26.36
2022-09-21T14:04:20.375Z,24.11
2022-09-21T14:06:51.733Z,24.47
2022-09-21T14:09:25.440Z,25.60
2022-09-21T14:11:59.028Z,26.95
2022-09-21T14:14:33.741Z,29.13
2022-09-21T14:17:03.125Z,24.94
2022-09-21T14:20:07.943Z,23.66
2022-09-21T14:22:38.704Z,24.04
2022-09-21T14:25:54.364Z,24.10
2022-09-21T14:28:35.031Z,23.76
2022-09-21T14:31:07.881Z,24.96
2022-09-21T14:33:45.899Z,25.03
2022-09-21T14:36:20.603Z,26.82
2022-09-21T14:38:54.795Z,28.61
2022-09-21T14:41:25.002Z,27.96
2022-09-21T14:43:56.486Z,28.04
2022-09-21T14:46:59.599Z,27.77
2022-09-21T14:50:04.224Z,30.05
2022-09-21T14:52:42.045Z,32.22
2022-09-21T14:55:19.707Z,34.38
2022-09-21T14:58:00.582Z,35.84
2022-09-21T15:00:39.515Z,36.82
2022-09-21T15:03:40.878Z,37.68
2022-09-21T15:06:43.031Z,38.24
2022-09-21T15:10:00.522Z,37.67
2022-09-21T15:12:40.438Z,38.51
2022-09-21T15:15:30.788Z,39.06
2022-09-21T15:18:00.576Z,39.99
2022-09-21T15:20:32.009Z,39.23
2022-09-21T15:23:02.040Z,39.89
2022-09-21T15:25:32.976Z,40.03
2022-09-21T15:28:01.176Z,39.92
2022-09-21T15:30:33.041Z,40.51
2022-09-21T15:33:02.701Z,41.09
2022-09-21T15:35:33.581Z,41.79
2022-09-21T15:38:02.008Z,41.79
2022-09-21T15:40:35.357Z,42.53
2022-09-21T15:43:05.530Z,42.60
2022-09-21T15:45:38.804Z,42.49
2022-09-21T15:48:13.087Z,42.96
2022-09-21T15:50:45.208Z,43.15
2022-09-21T15:53:21.718Z,43.79
2022-09-21T15:55:50.538Z,44.05
2022-09-21T15:58:31.660Z,43.63
2022-09-21T16:01:01.251Z,43.72
2022-09-21T16:03:29.856Z,44.81
2022-09-21T16:06:02.300Z,46.98
2022-09-21T16:08:35.010Z,46.68
2022-09-21T16:11:16.515Z,47.54
2022-09-21T16:14:03.330Z,48.47
2022-09-21T16:16:31.849Z,48.20
2022-09-21T16:19:00.538Z,49.50
2022-09-21T16:21:33.555Z,49.04
2022-09-21T16:24:12.587Z,49.25
2022-09-21T16:26:42.518Z,49.91
2022-09-21T16:29:19.942Z,50.23
2022-09-21T16:31:50.317Z,50.46
2022-09-21T16:34:22.701Z,50.66
2022-09-21T16:36:53.871Z,50.89
2022-09-21T16:39:22.701Z,51.51
2022-09-21T16:41:58.286Z,52.29
2022-09-21T16:44:44.574Z,53.14
2022-09-21T16:47:14.806Z,53.03
2022-09-21T16:49:43.350Z,53.47
2022-09-21T16:52:12.763Z,54.29
2022-09-21T16:54:40.828Z,54.35
2022-09-21T16:57:08.652Z,54.49
2022-09-21T16:59:36.514Z,55.02
2022-09-21T17:02:05.880Z,56.31
2022-09-21T17:04:36.005Z,57.19
2022-09-21T17:07:05.861Z,58.28
2022-09-21T17:09:38.227Z,59.63
2022-09-21T17:12:07.921Z,60.50
2022-09-21T17:14:39.250Z,60.70
2022-09-21T17:17:14.145Z,61.21
2022-09-21T17:19:42.967Z,62.03
2022-09-21T17:22:17.032Z,63.04
2022-09-21T17:24:51.341Z,63.76
2022-09-21T17:27:21.805Z,64.93
2022-09-21T17:29:50.392Z,65.52
2022-09-21T17:32:20.636Z,66.58
2022-09-21T17:34:53.293Z,67.32
2022-09-21T17:37:21.905Z,67.58
2022-09-21T17:39:51.078Z,68.43
2022-09-21T17:42:21.634Z,69.39
2022-09-21T17:44:59.538Z,69.83
2022-09-21T17:47:29.229Z,70.65
2022-09-21T17:50:02.903Z,71.40
2022-09-21T17:52:49.150Z,71.42
2022-09-21T17:55:20.107Z,71.80
2022-09-21T17:57:59.312Z,72.17
2022-09-21T18:00:38.740Z,72.07
2022-09-21T18:03:21.681Z,72.63
2022-09-21T18:05:51.424Z,73.35
2022-09-21T18:08:19.712Z,73.43
2022-09-21T18:10:58.862Z,73.82
2022-09-21T18:13:38.100Z,74.23
2022-09-21T18:16:19.587Z,74.39
2022-09-21T18:18:56.223Z,74.28
2022-09-21T18:21:27.535Z,74.98
2022-09-21T18:24:21.377Z,75.23
2022-09-21T18:26:52.455Z,75.31
2022-09-21T18:29:45.694Z,75.63
2022-09-21T18:32:37.603Z,75.86
2022-09-21T18:35:22.640Z,75.83
2022-09-21T18:38:06.036Z,76.17
2022-09-21T18:40:40.212Z,76.73
2022-09-21T18:43:26.531Z,76.43
2022-09-21T18:46:01.631Z,76.59
2022-09-21T18:48:48.561Z,76.64
2022-09-21T18:51:24.917Z,76.86
2022-09-21T18:53:55.852Z,77.37
2022-09-21T18:56:25.038Z,77.28
2022-09-21T18:58:57.985Z,77.37
2022-09-21T19:01:29.501Z,76.84
2022-09-21T19:03:58.149Z,77.37
2022-09-21T19:06:35.516Z,77.24
2022-09-21T19:09:11.137Z,77.41
2022-09-21T19:11:44.666Z,77.89
2022-09-21T19:14:21.454Z,77.91
2022-09-21T19:17:03.295Z,77.97
2022-09-21T19:19:39.764Z,77.90
2022-09-21T19:22:16.436Z,78.12
2022-09-21T19:24:55.306Z,78.00
2022-09-21T19:27:31.122Z,78.41
2022-09-21T19:30:06.161Z,78.61
2022-09-21T19:32:37.698Z,78.59
2022-09-21T19:35:19.885Z,79.22
2022-09-21T19:37:48.634Z,79.05
2022-09-21T19:40:18.265Z,79.22
2022-09-21T19:43:20.932Z,79.39
2022-09-21T19:46:04.796Z,79.82
2022-09-21T19:48:42.328Z,79.87
2022-09-21T19:51:17.992Z,80.35
2022-09-21T19:54:04.569Z,80.39
2022-09-21T19:56:55.302Z,80.75
2022-09-21T19:59:42.144Z,81.16
2022-09-21T20:02:14.316Z,81.42
2022-09-21T20:04:49.957Z,81.46
2022-09-21T20:07:25.952Z,82.08
2022-09-21T20:10:06.490Z,81.72
2022-09-21T20:12:42.563Z,82.10
2022-09-21T20:15:15.688Z,82.18
2022-09-21T20:17:51.312Z,81.92
2022-09-21T20:20:23.161Z,81.75
2022-09-21T20:22:51.932Z,82.24
2022-09-21T20:25:23.625Z,82.46
2022-09-21T20:27:55.186Z,82.73
2022-09-21T20:30:26.611Z,83.54
2022-09-21T20:32:58.855Z,83.59
2022-09-21T20:35:28.864Z,83.99
2022-09-21T20:38:01.910Z,83.64
2022-09-21T20:40:31.758Z,84.23
2022-09-21T20:43:00.840Z,84.18
2022-09-21T20:45:29.866Z,84.28
2022-09-21T20:48:12.790Z,84.47
2022-09-21T20:50:41.621Z,84.65
2022-09-21T20:53:09.720Z,84.56
2022-09-21T20:55:37.585Z,84.90
2022-09-21T20:58:05.604Z,85.65
2022-09-21T21:00:33.883Z,85.56
2022-09-21T21:03:03.618Z,86.05
2022-09-21T21:05:31.501Z,85.73
2022-09-21T21:07:59.428Z,85.91
2022-09-21T21:10:27.223Z,86.04
2022-09-21T21:12:55.057Z,86.33
2022-09-21T21:15:22.937Z,86.64
2022-09-21T21:17:50.774Z,86.67
2022-09-21T21:20:19.945Z,86.35
2022-09-21T21:22:50.731Z,86.44
2022-09-21T21:25:19.038Z,86.57
2022-09-21T21:27:47.069Z,86.42
2022-09-21T21:30:15.052Z,86.45
2022-09-21T21:32:43.037Z,86.77
2022-09-21T21:35:10.931Z,87.28
2022-09-21T21:37:40.316Z,87.47
2022-09-21T21:40:10.109Z,86.67
2022-09-21T21:42:38.046Z,87.25
2022-09-21T21:45:06.664Z,87.58
2022-09-21T21:47:39.714Z,87.41
2022-09-21T21:50:09.628Z,88.19
2022-09-21T21:52:37.514Z,87.61
2022-09-21T21:55:07.752Z,87.96
2022-09-21T21:57:35.706Z,87.84
2022-09-21T22:00:05.504Z,88.34
2022-09-21T22:02:33.829Z,87.91
2022-09-21T22:05:01.817Z,88.20
2022-09-21T22:07:29.611Z,88.16
2022-09-21T22:09:57.433Z,88.63
2022-09-21T22:12:26.564Z,89.28
2022-09-21T22:14:54.365Z,89.15
2022-09-21T22:17:23.085Z,89.39
2022-09-21T22:19:51.347Z,88.73
2022-09-21T22:22:19.156Z,89.11
2022-09-21T22:24:47.941Z,88.70
2022-09-21T22:27:16.360Z,88.61
2022-09-21T22:29:45.834Z,89.25
2022-09-21T22:32:13.642Z,88.81
2022-09-21T22:34:41.729Z,88.76
2022-09-21T22:37:09.517Z,89.03
2022-09-21T22:39:37.358Z,89.25
2022-09-21T22:42:05.454Z,89.56
2022-09-21T22:44:33.308Z,89.81
2022-09-21T22:47:02.427Z,89.29
2022-09-21T22:49:30.227Z,89.24
2022-09-21T22:51:58.018Z,89.35
2022-09-21T22:54:26.536Z,89.95
2022-09-21T22:56:54.315Z,89.62
2022-09-21T22:59:22.163Z,89.65
2022-09-21T23:01:49.959Z,89.83
2022-09-21T23:04:20.602Z,89.76
2022-09-21T23:06:49.519Z,89.70
2022-09-21T23:09:19.501Z,90.31
2022-09-21T23:11:53.053Z,89.89
2022-09-21T23:14:22.721Z,89.97
2022-09-21T23:16:50.693Z,90.52
2022-09-21T23:19:19.827Z,90.59
2022-09-21T23:21:50.266Z,90.63
2022-09-21T23:24:19.049Z,90.52
2022-09-21T23:26:47.832Z,91.08
2022-09-21T23:29:16.996Z,91.06
2022-09-21T23:31:46.435Z,91.29
2022-09-21T23:34:15.344Z,90.92
2022-09-21T23:36:45.653Z,91.42
2022-09-21T23:39:15.360Z,91.19
2022-09-21T23:41:43.718Z,91.65
2022-09-21T23:44:11.864Z,91.41
2022-09-21T23:46:40.954Z,92.13
2022-09-21T23:49:09.021Z,91.76
2022-09-21T23:51:36.926Z,91.58
2022-09-21T23:54:06.285Z,91.66
2022-09-21T23:56:34.708Z,92.21
2022-09-21T23:59:02.546Z,91.57
